createdAt,value
2023-05-21T15:07:56.203Z,10.13
2023-05-21T15:09:58.849Z,11.55
2023-05-21T15:12:01.486Z,13.18
2023-05-21T15:14:04.098Z,11.85
2023-05-21T15:16:07.188Z,11.02
2023-05-21T15:18:09.937Z,11.10
2023-05-21T15:20:12.841Z,10.90
2023-05-21T15:22:15.421Z,10.18
2023-05-21T15:24:19.412Z,8.90
2023-05-21T15:26:22.745Z,9.85
2023-05-21T15:28:25.359Z,9.73
2023-05-21T15:30:28.202Z,10.13
2023-05-21T15:32:31.701Z,9.60
2023-05-21T15:34:34.357Z,9.30
2023-05-21T15:36:37.540Z,9.57
2023-05-21T15:38:40.207Z,8.88
2023-05-21T15:40:44.331Z,8.73
2023-05-21T15:42:46.926Z,8.25
2023-05-21T15:44:49.543Z,8.20
2023-05-21T15:46:53.787Z,8.75
2023-05-21T15:48:56.454Z,9.60
2023-05-21T15:50:59.029Z,8.43
2023-05-21T15:53:01.589Z,8.40
2023-05-21T15:55:04.795Z,8.68
2023-05-21T15:57:08.723Z,8.98
2023-05-21T15:59:11.315Z,8.40
2023-05-21T16:01:13.992Z,9.02
2023-05-21T16:03:16.754Z,8.75
2023-05-21T16:05:19.444Z,8.13
2023-05-21T16:07:24.114Z,7.97
2023-05-21T16:09:27.746Z,7.85
2023-05-21T16:11:31.063Z,7.32
2023-05-21T16:13:35.012Z,7.25
2023-05-21T16:15:38.271Z,7.78
2023-05-21T16:17:41.000Z,7.32
2023-05-21T16:19:43.662Z,7.50
2023-05-21T16:21:46.301Z,7.70
2023-05-21T16:23:48.914Z,8.55
2023-05-21T16:25:51.641Z,10.13
2023-05-21T16:27:54.232Z,8.32
2023-05-21T16:29:58.304Z,8.90
2023-05-21T16:32:01.034Z,9.50
2023-05-21T16:34:04.652Z,7.75
2023-05-21T16:36:07.366Z,9.05
2023-05-21T16:38:09.995Z,7.85
2023-05-21T16:40:14.767Z,7.93
2023-05-21T16:42:17.777Z,7.88
2023-05-21T16:44:20.437Z,8.07
2023-05-21T16:46:26.506Z,7.60
2023-05-21T16:48:29.160Z,7.78
2023-05-21T16:50:31.748Z,8.30
2023-05-21T16:52:34.315Z,7.63
2023-05-21T16:54:36.900Z,7.70
2023-05-21T16:56:39.501Z,7.50
2023-05-21T16:58:42.124Z,8.00
2023-05-21T17:00:45.612Z,7.60
2023-05-21T17:02:49.676Z,7.57
2023-05-21T17:04:52.339Z,7.10
2023-05-21T17:06:54.921Z,7.75
2023-05-21T17:08:57.653Z,7.80
2023-05-21T17:11:00.299Z,7.57
2023-05-21T17:13:17.764Z,7.57
2023-05-21T17:17:27.421Z,8.40
2023-05-21T17:19:31.796Z,7.75
2023-05-21T17:21:34.574Z,8.13
2023-05-21T17:23:37.615Z,7.47
2023-05-21T17:25:40.889Z,8.50
2023-05-21T17:27:43.716Z,6.88
2023-05-21T17:29:46.408Z,7.75
2023-05-21T17:31:49.098Z,7.68
2023-05-21T17:33:51.796Z,8.40
2023-05-21T17:35:56.909Z,11.07
2023-05-21T17:37:59.504Z,10.93
2023-05-21T17:40:05.517Z,10.45
2023-05-21T17:42:08.355Z,9.48
2023-05-21T17:44:11.411Z,9.50
2023-05-21T17:46:16.707Z,9.10
2023-05-21T17:48:19.384Z,10.15
2023-05-21T17:50:21.979Z,7.80
2023-05-21T17:52:26.917Z,8.38
2023-05-21T17:54:29.530Z,7.43
2023-05-21T17:56:34.307Z,7.40
2023-05-21T17:58:36.899Z,8.40
2023-05-21T18:00:39.555Z,8.50
2023-05-21T18:02:42.266Z,8.95
2023-05-21T18:04:44.912Z,8.45
2023-05-21T18:06:47.562Z,7.80
2023-05-21T18:08:51.496Z,9.48
2023-05-21T18:10:54.154Z,10.38
2023-05-21T18:12:56.983Z,9.30
2023-05-21T18:14:59.588Z,9.95
2023-05-21T18:17:02.352Z,9.18
2023-05-21T18:19:06.688Z,9.70
2023-05-21T18:21:09.682Z,17.02
2023-05-21T18:23:12.548Z,12.27
2023-05-21T18:25:16.570Z,11.60
2023-05-21T18:27:19.156Z,12.55
2023-05-21T18:29:21.753Z,11.07
2023-05-21T18:31:24.684Z,11.80
2023-05-21T18:33:27.470Z,12.27
2023-05-21T18:35:32.908Z,11.30
2023-05-21T18:37:35.481Z,12.55
2023-05-21T18:39:38.093Z,12.25
2023-05-21T18:41:42.067Z,11.57
2023-05-21T18:43:44.758Z,11.85
2023-05-21T18:45:48.091Z,12.57
2023-05-21T18:47:50.699Z,12.65
2023-05-21T18:49:53.390Z,11.73
2023-05-21T18:51:56.387Z,11.05
2023-05-21T18:53:59.047Z,12.13
2023-05-21T18:56:01.647Z,11.70
2023-05-21T18:58:05.681Z,12.65
2023-05-21T19:00:09.458Z,13.15
2023-05-21T19:02:12.232Z,12.45
2023-05-21T19:04:15.408Z,13.65
2023-05-21T19:06:18.094Z,15.85
2023-05-21T19:08:20.706Z,15.63
2023-05-21T19:10:23.407Z,15.23
2023-05-21T19:12:26.039Z,14.35
2023-05-21T19:14:29.961Z,14.10
2023-05-21T19:16:32.719Z,14.93
2023-05-21T19:18:35.354Z,15.88
2023-05-21T19:20:40.197Z,16.10
2023-05-21T19:22:42.840Z,15.52
2023-05-21T19:24:46.980Z,16.83
2023-05-21T19:26:49.596Z,16.05
2023-05-21T19:28:53.632Z,15.90
2023-05-21T19:30:58.329Z,14.23
2023-05-21T19:33:00.972Z,15.88
2023-05-21T19:35:04.650Z,15.50
2023-05-21T19:37:08.075Z,14.40
2023-05-21T19:39:10.724Z,14.93
2023-05-21T19:41:13.414Z,14.25
2023-05-21T19:43:16.032Z,13.63
2023-05-21T19:45:21.586Z,13.32
2023-05-21T19:47:25.741Z,12.90
2023-05-21T19:49:28.622Z,13.25
2023-05-21T19:51:31.313Z,12.38
2023-05-21T19:53:36.912Z,12.35
2023-05-21T19:55:39.509Z,12.18
2023-05-21T19:57:42.143Z,11.55
2023-05-21T19:59:44.760Z,12.60
2023-05-21T20:01:47.449Z,12.55
2023-05-21T20:03:51.782Z,12.10
2023-05-21T20:05:54.560Z,12.38
2023-05-21T20:07:58.392Z,13.15
2023-05-21T20:10:00.968Z,13.40
2023-05-21T20:12:03.711Z,12.98
2023-05-21T20:14:06.418Z,13.02
2023-05-21T20:16:10.252Z,12.35
2023-05-21T20:18:13.238Z,11.90
2023-05-21T20:20:18.687Z,12.90
2023-05-21T20:22:21.310Z,12.20
2023-05-21T20:24:23.918Z,11.55
2023-05-21T20:26:27.091Z,12.25
2023-05-21T20:28:29.713Z,11.38
2023-05-21T20:30:33.380Z,10.60
2023-05-21T20:32:36.050Z,11.10
2023-05-21T20:34:47.209Z,10.32
2023-05-21T20:36:58.941Z,10.00
2023-05-21T20:39:02.310Z,9.60
2023-05-21T20:41:06.065Z,9.55
2023-05-21T20:43:11.831Z,9.20
2023-05-21T20:45:15.838Z,8.32
2023-05-21T20:47:20.168Z,8.57
2023-05-21T20:49:24.652Z,9.55
2023-05-21T20:51:27.590Z,8.20
2023-05-21T20:53:32.514Z,9.05
2023-05-21T20:55:35.523Z,8.88
2023-05-21T20:57:38.151Z,9.85
2023-05-21T20:59:40.815Z,9.68
2023-05-21T21:01:43.451Z,9.30
2023-05-21T21:03:46.674Z,9.57
2023-05-21T21:05:49.480Z,9.82
2023-05-21T21:07:55.499Z,9.45
2023-05-21T21:09:59.896Z,8.93
2023-05-21T21:12:14.335Z,9.75
2023-05-21T21:14:25.647Z,9.43
2023-05-21T21:16:28.319Z,9.00
2023-05-21T21:18:30.941Z,8.68
2023-05-21T21:20:33.590Z,9.27
2023-05-21T21:22:36.297Z,9.43
2023-05-21T21:24:38.862Z,9.88
2023-05-21T21:26:42.807Z,9.63
2023-05-21T21:28:46.618Z,9.45
2023-05-21T21:30:49.478Z,9.60
2023-05-21T21:32:52.151Z,9.82
2023-05-21T21:34:54.752Z,9.50
2023-05-21T21:36:57.344Z,9.15
2023-05-21T21:39:00.322Z,10.60
2023-05-21T21:41:03.305Z,9.55
2023-05-21T21:43:07.284Z,9.73
2023-05-21T21:45:11.025Z,9.98
2023-05-21T21:47:13.625Z,9.45
2023-05-21T21:49:17.163Z,10.30
2023-05-21T21:51:23.113Z,9.10
2023-05-21T21:53:26.237Z,9.20
2023-05-21T21:55:29.543Z,9.88
2023-05-21T21:57:32.289Z,10.20
2023-05-21T21:59:39.297Z,9.90
2023-05-21T22:01:41.979Z,9.25
2023-05-21T22:03:44.599Z,9.52
2023-05-21T22:05:47.203Z,10.32
2023-05-21T22:07:49.842Z,10.02
2023-05-21T22:09:52.436Z,10.63
2023-05-21T22:11:55.141Z,10.20
2023-05-21T22:13:57.764Z,9.30
2023-05-21T22:16:01.948Z,10.55
2023-05-21T22:18:04.916Z,9.80
2023-05-21T22:20:08.862Z,10.43
2023-05-21T22:22:12.053Z,10.00
2023-05-21T22:24:30.422Z,10.35
2023-05-21T22:26:34.474Z,9.23
2023-05-21T22:28:37.139Z,9.85
2023-05-21T22:30:39.968Z,9.10
2023-05-21T22:32:44.266Z,9.40
2023-05-21T22:34:46.911Z,9.68
2023-05-21T22:36:49.500Z,9.50
2023-05-21T22:38:52.145Z,10.05
2023-05-21T22:40:54.843Z,9.48
2023-05-21T22:42:57.685Z,9.88
2023-05-21T22:45:00.942Z,9.98
2023-05-21T22:47:03.765Z,9.10
2023-05-21T22:49:10.292Z,10.35
2023-05-21T22:51:14.054Z,11.15
2023-05-21T22:53:17.296Z,10.30
2023-05-21T22:55:19.921Z,9.68
2023-05-21T22:57:22.528Z,10.75
2023-05-21T22:59:25.180Z,10.40
2023-05-21T23:01:27.997Z,10.63
2023-05-21T23:03:31.071Z,10.55
2023-05-21T23:05:35.066Z,10.25
2023-05-21T23:07:37.748Z,10.48
2023-05-21T23:09:41.001Z,10.15
2023-05-21T23:11:43.696Z,10.93
2023-05-21T23:13:46.307Z,10.20
2023-05-21T23:15:50.760Z,10.90
2023-05-21T23:17:53.375Z,10.82
2023-05-21T23:19:56.117Z,11.35
2023-05-21T23:22:00.281Z,11.07
2023-05-21T23:24:03.288Z,11.13
2023-05-21T23:26:05.924Z,10.13
2023-05-21T23:28:08.578Z,10.52
2023-05-21T23:30:11.953Z,10.93
2023-05-21T23:32:14.609Z,10.65
2023-05-21T23:34:17.270Z,10.77
2023-05-21T23:36:19.994Z,11.02
2023-05-21T23:38:26.019Z,11.00
2023-05-21T23:40:28.580Z,10.65
2023-05-21T23:42:31.226Z,10.63
2023-05-21T23:44:33.867Z,10.50
2023-05-21T23:46:36.537Z,10.77
2023-05-21T23:48:39.546Z,9.90
2023-05-21T23:50:42.126Z,10.90
2023-05-21T23:52:44.968Z,10.50
2023-05-21T23:54:48.950Z,10.27
2023-05-21T23:56:51.543Z,10.25
2023-05-21T23:58:54.149Z,11.02
